sensor_id;sensor_type;location;lat;lon;timestamp;P1;P2;P0
12246;PMS7003;6186;52.022;4.692;2024-01-30T00:00:05;18.00;15.00;8.50
12246;PMS7003;6186;52.022;4.692;2024-01-30T00:02:31;18.00;16.20;9.00
12246;PMS7003;6186;52.022;4.692;2024-01-30T00:04:57;15.25;13.75;9.00
12246;PMS7003;6186;52.022;4.692;2024-01-30T00:07:22;15.00;13.75;8.00
12246;PMS7003;6186;52.022;4.692;2024-01-30T00:09:47;14.25;14.00;8.00
12246;PMS7003;6186;52.022;4.692;2024-01-30T00:12:13;18.75;16.00;7.00
12246;PMS7003;6186;52.022;4.692;2024-01-30T00:14:38;16.75;14.50;8.00
12246;PMS7003;6186;52.022;4.692;2024-01-30T00:17:03;16.25;13.25;8.00
12246;PMS7003;6186;52.022;4.692;2024-01-30T00:19:28;13.00;13.00;9.25
12246;PMS7003;6186;52.022;4.692;2024-01-30T00:21:54;13.25;13.00;8.00
12246;PMS7003;6186;52.022;4.692;2024-01-30T00:24:19;15.00;14.00;7.50
12246;PMS7003;6186;52.022;4.692;2024-01-30T00:26:44;12.50;12.00;7.00
12246;PMS7003;6186;52.022;4.692;2024-01-30T00:29:09;14.75;14.75;8.00
12246;PMS7003;6186;52.022;4.692;2024-01-30T00:31:35;15.50;14.50;9.25
12246;PMS7003;6186;52.022;4.692;2024-01-30T00:34:00;13.00;12.25;7.00
12246;PMS7003;6186;52.022;4.692;2024-01-30T00:36:25;15.25;13.50;8.25
12246;PMS7003;6186;52.022;4.692;2024-01-30T00:38:50;14.25;13.75;8.00
12246;PMS7003;6186;52.022;4.692;2024-01-30T00:41:17;12.50;11.00;7.00
12246;PMS7003;6186;52.022;4.692;2024-01-30T00:43:43;15.60;14.40;8.00
12246;PMS7003;6186;52.022;4.692;2024-01-30T00:46:08;17.00;13.00;8.25
12246;PMS7003;6186;52.022;4.692;2024-01-30T00:48:33;13.25;12.75;8.00
12246;PMS7003;6186;52.022;4.692;2024-01-30T00:50:58;14.75;13.25;7.25
12246;PMS7003;6186;52.022;4.692;2024-01-30T00:53:23;13.50;12.25;7.00
12246;PMS7003;6186;52.022;4.692;2024-01-30T00:55:49;13.75;12.00;7.00
12246;PMS7003;6186;52.022;4.692;2024-01-30T00:58:14;16.25;13.25;7.25
12246;PMS7003;6186;52.022;4.692;2024-01-30T01:00:39;11.50;11.00;6.25
12246;PMS7003;6186;52.022;4.692;2024-01-30T01:03:05;12.75;11.25;7.25
12246;PMS7003;6186;52.022;4.692;2024-01-30T01:05:30;14.25;14.25;8.00
12246;PMS7003;6186;52.022;4.692;2024-01-30T01:07:55;13.00;12.00;7.00
12246;PMS7003;6186;52.022;4.692;2024-01-30T01:10:20;11.00;11.00;6.50
12246;PMS7003;6186;52.022;4.692;2024-01-30T01:12:48;11.75;11.00;6.50
12246;PMS7003;6186;52.022;4.692;2024-01-30T01:15:13;12.00;10.80;6.00
12246;PMS7003;6186;52.022;4.692;2024-01-30T01:17:38;13.50;12.00;6.25
12246;PMS7003;6186;52.022;4.692;2024-01-30T01:20:04;13.25;12.00;7.00
12246;PMS7003;6186;52.022;4.692;2024-01-30T01:22:30;13.00;11.40;6.20
12246;PMS7003;6186;52.022;4.692;2024-01-30T01:24:55;12.50;11.25;6.00
12246;PMS7003;6186;52.022;4.692;2024-01-30T01:27:21;13.75;11.75;6.00
12246;PMS7003;6186;52.022;4.692;2024-01-30T01:29:46;11.00;9.75;6.00
12246;PMS7003;6186;52.022;4.692;2024-01-30T01:32:11;12.00;11.50;6.75
12246;PMS7003;6186;52.022;4.692;2024-01-30T01:34:36;10.75;10.00;6.00
12246;PMS7003;6186;52.022;4.692;2024-01-30T01:37:02;9.25;8.00;4.25
12246;PMS7003;6186;52.022;4.692;2024-01-30T01:39:27;11.75;11.00;6.00
12246;PMS7003;6186;52.022;4.692;2024-01-30T01:41:52;12.00;10.25;5.50
12246;PMS7003;6186;52.022;4.692;2024-01-30T01:44:18;11.00;11.00;6.25
12246;PMS7003;6186;52.022;4.692;2024-01-30T01:46:43;12.00;12.00;6.75
12246;PMS7003;6186;52.022;4.692;2024-01-30T01:49:09;10.00;9.20;6.00
12246;PMS7003;6186;52.022;4.692;2024-01-30T01:51:35;9.75;9.00;6.00
12246;PMS7003;6186;52.022;4.692;2024-01-30T01:54:02;11.00;9.80;6.00
12246;PMS7003;6186;52.022;4.692;2024-01-30T01:56:29;14.20;12.40;7.40
12246;PMS7003;6186;52.022;4.692;2024-01-30T01:58:55;14.20;13.00;7.20
12246;PMS7003;6186;52.022;4.692;2024-01-30T02:01:25;16.00;13.60;7.00
12246;PMS7003;6186;52.022;4.692;2024-01-30T02:03:52;11.60;10.80;6.00
12246;PMS7003;6186;52.022;4.692;2024-01-30T02:06:17;11.00;9.25;4.50
12246;PMS7003;6186;52.022;4.692;2024-01-30T02:08:43;12.80;9.40;6.00
12246;PMS7003;6186;52.022;4.692;2024-01-30T02:11:09;12.00;12.00;7.25
12246;PMS7003;6186;52.022;4.692;2024-01-30T02:13:34;15.25;12.25;7.00
12246;PMS7003;6186;52.022;4.692;2024-01-30T02:15:59;10.75;8.25;4.50
12246;PMS7003;6186;52.022;4.692;2024-01-30T02:18:25;14.00;10.75;6.00
12246;PMS7003;6186;52.022;4.692;2024-01-30T02:20:50;15.25;12.00;7.00
12246;PMS7003;6186;52.022;4.692;2024-01-30T02:23:19;13.00;12.00;7.00
12246;PMS7003;6186;52.022;4.692;2024-01-30T02:25:45;12.00;11.00;7.00
12246;PMS7003;6186;52.022;4.692;2024-01-30T02:28:10;11.75;11.00;5.75
12246;PMS7003;6186;52.022;4.692;2024-01-30T02:30:36;12.40;11.60;7.00
12246;PMS7003;6186;52.022;4.692;2024-01-30T02:33:01;17.25;12.50;6.75
12246;PMS7003;6186;52.022;4.692;2024-01-30T02:35:27;11.50;11.00;7.00
12246;PMS7003;6186;52.022;4.692;2024-01-30T02:37:52;12.00;11.00;6.00
12246;PMS7003;6186;52.022;4.692;2024-01-30T02:40:17;12.25;12.00;7.00
12246;PMS7003;6186;52.022;4.692;2024-01-30T02:42:42;8.50;8.25;4.75
12246;PMS7003;6186;52.022;4.692;2024-01-30T02:45:08;12.75;11.00;6.00
12246;PMS7003;6186;52.022;4.692;2024-01-30T02:47:34;14.40;12.40;7.00
12246;PMS7003;6186;52.022;4.692;2024-01-30T02:49:59;10.75;9.00;6.00
12246;PMS7003;6186;52.022;4.692;2024-01-30T02:52:24;12.00;11.00;6.00
12246;PMS7003;6186;52.022;4.692;2024-01-30T02:54:49;11.50;11.50;7.00
12246;PMS7003;6186;52.022;4.692;2024-01-30T02:57:15;12.00;11.00;6.75
12246;PMS7003;6186;52.022;4.692;2024-01-30T02:59:40;12.75;12.00;6.00
12246;PMS7003;6186;52.022;4.692;2024-01-30T03:02:05;11.00;9.75;6.75
12246;PMS7003;6186;52.022;4.692;2024-01-30T03:04:30;9.00;8.00;6.00
12246;PMS7003;6186;52.022;4.692;2024-01-30T03:06:55;13.50;12.25;7.00
12246;PMS7003;6186;52.022;4.692;2024-01-30T03:09:21;13.25;11.00;4.25
12246;PMS7003;6186;52.022;4.692;2024-01-30T03:11:46;11.75;11.00;6.50
12246;PMS7003;6186;52.022;4.692;2024-01-30T03:14:11;10.00;10.00;4.00
12246;PMS7003;6186;52.022;4.692;2024-01-30T03:16:37;13.00;11.75;7.00
12246;PMS7003;6186;52.022;4.692;2024-01-30T03:19:02;12.25;11.50;6.00
12246;PMS7003;6186;52.022;4.692;2024-01-30T03:21:27;12.00;9.50;5.25
12246;PMS7003;6186;52.022;4.692;2024-01-30T03:23:52;11.00;9.50;5.25
12246;PMS7003;6186;52.022;4.692;2024-01-30T03:26:18;7.75;7.00;3.50
12246;PMS7003;6186;52.022;4.692;2024-01-30T03:28:43;9.25;8.25;6.00
12246;PMS7003;6186;52.022;4.692;2024-01-30T03:31:08;12.75;11.50;7.00
12246;PMS7003;6186;52.022;4.692;2024-01-30T03:33:33;11.75;10.75;7.00
12246;PMS7003;6186;52.022;4.692;2024-01-30T03:36:02;12.25;10.75;6.00
12246;PMS7003;6186;52.022;4.692;2024-01-30T03:38:28;9.60;9.60;6.00
12246;PMS7003;6186;52.022;4.692;2024-01-30T03:40:53;12.00;9.00;6.00
12246;PMS7003;6186;52.022;4.692;2024-01-30T03:43:18;12.75;12.00;5.75
12246;PMS7003;6186;52.022;4.692;2024-01-30T03:45:43;11.75;9.50;5.75
12246;PMS7003;6186;52.022;4.692;2024-01-30T03:48:09;11.00;11.00;6.00
12246;PMS7003;6186;52.022;4.692;2024-01-30T03:50:34;15.25;11.75;6.00
12246;PMS7003;6186;52.022;4.692;2024-01-30T03:52:59;9.00;8.00;4.75
12246;PMS7003;6186;52.022;4.692;2024-01-30T03:55:24;11.00;11.00;6.25
12246;PMS7003;6186;52.022;4.692;2024-01-30T03:57:49;9.50;9.00;5.25
12246;PMS7003;6186;52.022;4.692;2024-01-30T04:00:15;12.00;11.00;7.00
12246;PMS7003;6186;52.022;4.692;2024-01-30T04:02:40;12.25;11.75;7.00
12246;PMS7003;6186;52.022;4.692;2024-01-30T04:05:05;12.00;12.00;7.00
12246;PMS7003;6186;52.022;4.692;2024-01-30T04:07:31;13.50;11.75;7.25
12246;PMS7003;6186;52.022;4.692;2024-01-30T04:09:56;13.00;12.00;7.00
12246;PMS7003;6186;52.022;4.692;2024-01-30T04:12:21;12.00;10.75;6.00
12246;PMS7003;6186;52.022;4.692;2024-01-30T04:14:47;11.25;9.00;6.00
12246;PMS7003;6186;52.022;4.692;2024-01-30T04:17:12;12.25;11.50;6.75
12246;PMS7003;6186;52.022;4.692;2024-01-30T04:19:37;8.25;8.00;5.00
12246;PMS7003;6186;52.022;4.692;2024-01-30T04:22:02;10.75;10.50;6.00
12246;PMS7003;6186;52.022;4.692;2024-01-30T04:24:28;10.00;9.00;6.00
12246;PMS7003;6186;52.022;4.692;2024-01-30T04:26:53;12.00;11.25;6.00
12246;PMS7003;6186;52.022;4.692;2024-01-30T04:29:18;12.00;11.00;6.00
12246;PMS7003;6186;52.022;4.692;2024-01-30T04:31:43;12.25;11.00;6.00
12246;PMS7003;6186;52.022;4.692;2024-01-30T04:34:09;9.75;9.00;5.00
12246;PMS7003;6186;52.022;4.692;2024-01-30T04:36:34;12.00;11.00;4.25
12246;PMS7003;6186;52.022;4.692;2024-01-30T04:38:59;12.25;11.75;6.00
12246;PMS7003;6186;52.022;4.692;2024-01-30T04:41:24;12.00;11.00;6.00
12246;PMS7003;6186;52.022;4.692;2024-01-30T04:43:49;11.00;11.00;6.00
12246;PMS7003;6186;52.022;4.692;2024-01-30T04:46:15;10.75;9.25;6.00
12246;PMS7003;6186;52.022;4.692;2024-01-30T04:48:40;11.00;8.75;6.00
12246;PMS7003;6186;52.022;4.692;2024-01-30T04:51:05;12.50;8.75;5.25
12246;PMS7003;6186;52.022;4.692;2024-01-30T04:53:30;12.50;10.00;6.00
12246;PMS7003;6186;52.022;4.692;2024-01-30T04:55:56;12.25;10.25;6.00
12246;PMS7003;6186;52.022;4.692;2024-01-30T04:58:21;14.00;13.00;8.00
12246;PMS7003;6186;52.022;4.692;2024-01-30T05:00:46;12.75;11.00;6.00
12246;PMS7003;6186;52.022;4.692;2024-01-30T05:03:11;11.75;11.00;6.00
12246;PMS7003;6186;52.022;4.692;2024-01-30T05:05:36;10.25;9.00;4.50
12246;PMS7003;6186;52.022;4.692;2024-01-30T05:08:02;13.00;12.00;7.00
12246;PMS7003;6186;52.022;4.692;2024-01-30T05:10:27;11.25;9.50;5.50
12246;PMS7003;6186;52.022;4.692;2024-01-30T05:12:52;11.50;11.50;6.00
12246;PMS7003;6186;52.022;4.692;2024-01-30T05:15:18;12.25;10.25;6.00
12246;PMS7003;6186;52.022;4.692;2024-01-30T05:17:44;11.80;11.80;7.00
12246;PMS7003;6186;52.022;4.692;2024-01-30T05:20:09;12.75;10.25;6.00
12246;PMS7003;6186;52.022;4.692;2024-01-30T05:22:35;11.60;9.60;5.20
12246;PMS7003;6186;52.022;4.692;2024-01-30T05:25:00;8.75;8.25;5.25
12246;PMS7003;6186;52.022;4.692;2024-01-30T05:27:25;9.00;8.25;6.00
12246;PMS7003;6186;52.022;4.692;2024-01-30T05:29:51;9.75;8.75;4.00
12246;PMS7003;6186;52.022;4.692;2024-01-30T05:32:16;12.50;9.75;6.00
12246;PMS7003;6186;52.022;4.692;2024-01-30T05:34:41;12.50;11.75;6.00
12246;PMS7003;6186;52.022;4.692;2024-01-30T05:37:06;10.00;9.25;6.00
12246;PMS7003;6186;52.022;4.692;2024-01-30T05:39:32;11.00;9.00;6.50
12246;PMS7003;6186;52.022;4.692;2024-01-30T05:41:57;14.25;10.75;6.00
12246;PMS7003;6186;52.022;4.692;2024-01-30T05:44:22;11.50;11.50;6.00
12246;PMS7003;6186;52.022;4.692;2024-01-30T05:46:47;11.75;11.00;6.00
12246;PMS7003;6186;52.022;4.692;2024-01-30T05:49:12;10.50;8.75;6.00
12246;PMS7003;6186;52.022;4.692;2024-01-30T05:51:38;8.75;8.75;6.00
12246;PMS7003;6186;52.022;4.692;2024-01-30T05:54:03;10.00;8.75;4.00
12246;PMS7003;6186;52.022;4.692;2024-01-30T05:56:28;8.25;8.00;4.00
12246;PMS7003;6186;52.022;4.692;2024-01-30T05:58:53;9.50;8.25;5.75
12246;PMS7003;6186;52.022;4.692;2024-01-30T06:01:18;10.25;9.00;4.00
12246;PMS7003;6186;52.022;4.692;2024-01-30T06:03:44;11.75;9.00;6.00
12246;PMS7003;6186;52.022;4.692;2024-01-30T06:06:09;9.50;9.25;4.75
12246;PMS7003;6186;52.022;4.692;2024-01-30T06:08:34;9.50;8.75;4.00
12246;PMS7003;6186;52.022;4.692;2024-01-30T06:11:00;8.50;8.25;5.50
12246;PMS7003;6186;52.022;4.692;2024-01-30T06:13:25;13.50;11.25;6.75
12246;PMS7003;6186;52.022;4.692;2024-01-30T06:15:50;9.75;9.75;6.00
12246;PMS7003;6186;52.022;4.692;2024-01-30T06:18:15;12.25;9.00;6.00
12246;PMS7003;6186;52.022;4.692;2024-01-30T06:20:41;9.75;9.50;5.00
12246;PMS7003;6186;52.022;4.692;2024-01-30T06:23:06;13.50;12.00;7.00
12246;PMS7003;6186;52.022;4.692;2024-01-30T06:25:31;12.50;10.50;6.75
12246;PMS7003;6186;52.022;4.692;2024-01-30T06:27:56;11.75;10.50;7.00
12246;PMS7003;6186;52.022;4.692;2024-01-30T06:30:21;12.00;12.00;6.25
12246;PMS7003;6186;52.022;4.692;2024-01-30T06:32:47;8.25;8.25;6.00
12246;PMS7003;6186;52.022;4.692;2024-01-30T06:35:12;12.00;12.00;6.00
12246;PMS7003;6186;52.022;4.692;2024-01-30T06:37:37;9.00;9.00;6.00
12246;PMS7003;6186;52.022;4.692;2024-01-30T06:40:03;12.50;12.00;6.25
12246;PMS7003;6186;52.022;4.692;2024-01-30T06:42:28;12.00;12.00;7.00
12246;PMS7003;6186;52.022;4.692;2024-01-30T06:44:53;15.50;13.00;7.25
12246;PMS7003;6186;52.022;4.692;2024-01-30T06:47:19;12.75;12.00;7.00
12246;PMS7003;6186;52.022;4.692;2024-01-30T06:49:44;13.00;10.75;7.00
12246;PMS7003;6186;52.022;4.692;2024-01-30T06:52:09;16.50;12.50;6.50
12246;PMS7003;6186;52.022;4.692;2024-01-30T06:54:34;11.75;9.75;6.00
12246;PMS7003;6186;52.022;4.692;2024-01-30T06:57:00;12.50;10.25;4.75
12246;PMS7003;6186;52.022;4.692;2024-01-30T06:59:25;9.50;9.50;6.50
12246;PMS7003;6186;52.022;4.692;2024-01-30T07:01:51;11.50;9.00;6.00
12246;PMS7003;6186;52.022;4.692;2024-01-30T07:04:16;13.00;11.00;6.50
12246;PMS7003;6186;52.022;4.692;2024-01-30T07:06:41;12.00;10.25;6.00
12246;PMS7003;6186;52.022;4.692;2024-01-30T07:09:07;12.00;12.00;7.00
12246;PMS7003;6186;52.022;4.692;2024-01-30T07:11:32;9.75;9.75;6.00
12246;PMS7003;6186;52.022;4.692;2024-01-30T07:13:57;11.25;9.75;6.00
12246;PMS7003;6186;52.022;4.692;2024-01-30T07:16:22;10.00;9.75;5.75
12246;PMS7003;6186;52.022;4.692;2024-01-30T07:18:48;10.75;10.00;6.00
12246;PMS7003;6186;52.022;4.692;2024-01-30T07:21:13;10.50;10.50;6.00
12246;PMS7003;6186;52.022;4.692;2024-01-30T07:23:38;12.25;11.75;7.00
12246;PMS7003;6186;52.022;4.692;2024-01-30T07:26:03;11.50;10.25;4.75
12246;PMS7003;6186;52.022;4.692;2024-01-30T07:28:31;10.60;9.60;6.00
12246;PMS7003;6186;52.022;4.692;2024-01-30T07:30:57;11.00;10.00;6.00
12246;PMS7003;6186;52.022;4.692;2024-01-30T07:33:22;10.25;9.75;6.00
12246;PMS7003;6186;52.022;4.692;2024-01-30T07:35:47;9.25;9.25;6.00
12246;PMS7003;6186;52.022;4.692;2024-01-30T07:38:12;11.75;9.75;6.00
12246;PMS7003;6186;52.022;4.692;2024-01-30T07:40:38;14.00;12.00;6.25
12246;PMS7003;6186;52.022;4.692;2024-01-30T07:43:03;13.00;9.25;4.00
12246;PMS7003;6186;52.022;4.692;2024-01-30T07:45:28;10.25;10.00;6.00
12246;PMS7003;6186;52.022;4.692;2024-01-30T07:47:54;8.00;8.00;5.25
12246;PMS7003;6186;52.022;4.692;2024-01-30T07:50:19;11.00;9.00;4.00
12246;PMS7003;6186;52.022;4.692;2024-01-30T07:52:44;11.25;11.25;6.25
12246;PMS7003;6186;52.022;4.692;2024-01-30T07:55:10;11.75;10.75;5.00
12246;PMS7003;6186;52.022;4.692;2024-01-30T07:57:35;10.25;10.00;6.25
12246;PMS7003;6186;52.022;4.692;2024-01-30T08:00:01;11.25;10.25;5.25
12246;PMS7003;6186;52.022;4.692;2024-01-30T08:02:26;9.00;8.40;4.40
12246;PMS7003;6186;52.022;4.692;2024-01-30T08:04:51;11.25;9.00;5.25
12246;PMS7003;6186;52.022;4.692;2024-01-30T08:07:17;11.75;10.00;4.00
12246;PMS7003;6186;52.022;4.692;2024-01-30T08:09:42;11.50;9.50;6.00
12246;PMS7003;6186;52.022;4.692;2024-01-30T08:12:07;10.00;10.00;4.00
12246;PMS7003;6186;52.022;4.692;2024-01-30T08:14:32;9.50;9.00;4.00
12246;PMS7003;6186;52.022;4.692;2024-01-30T08:16:58;9.25;9.00;5.25
12246;PMS7003;6186;52.022;4.692;2024-01-30T08:19:23;10.75;8.50;4.00
12246;PMS7003;6186;52.022;4.692;2024-01-30T08:21:48;9.50;7.75;4.00
12246;PMS7003;6186;52.022;4.692;2024-01-30T08:24:13;9.00;9.00;4.75
12246;PMS7003;6186;52.022;4.692;2024-01-30T08:26:39;11.00;10.00;4.25
12246;PMS7003;6186;52.022;4.692;2024-01-30T08:29:04;9.00;8.50;4.00
12246;PMS7003;6186;52.022;4.692;2024-01-30T08:31:29;8.75;8.00;3.50
12246;PMS7003;6186;52.022;4.692;2024-01-30T08:33:54;13.50;9.75;5.25
12246;PMS7003;6186;52.022;4.692;2024-01-30T08:36:19;10.25;9.75;5.25
12246;PMS7003;6186;52.022;4.692;2024-01-30T08:38:45;11.25;10.00;5.25
12246;PMS7003;6186;52.022;4.692;2024-01-30T08:41:10;9.00;8.75;4.00
12246;PMS7003;6186;52.022;4.692;2024-01-30T08:43:35;11.50;10.25;5.25
12246;PMS7003;6186;52.022;4.692;2024-01-30T08:46:01;14.75;9.75;4.00
12246;PMS7003;6186;52.022;4.692;2024-01-30T08:48:26;9.50;9.00;5.25
12246;PMS7003;6186;52.022;4.692;2024-01-30T08:50:52;9.75;9.00;4.00
12246;PMS7003;6186;52.022;4.692;2024-01-30T08:53:18;8.75;8.75;4.00
12246;PMS7003;6186;52.022;4.692;2024-01-30T08:55:43;10.25;8.75;4.75
12246;PMS7003;6186;52.022;4.692;2024-01-30T08:58:08;8.25;8.00;4.00
12246;PMS7003;6186;52.022;4.692;2024-01-30T09:00:33;12.00;8.25;4.00
12246;PMS7003;6186;52.022;4.692;2024-01-30T09:02:59;8.25;8.00;5.25
12246;PMS7003;6186;52.022;4.692;2024-01-30T09:05:24;10.75;9.00;4.75
12246;PMS7003;6186;52.022;4.692;2024-01-30T09:07:49;8.75;8.75;4.00
12246;PMS7003;6186;52.022;4.692;2024-01-30T09:10:14;10.00;8.25;4.00
12246;PMS7003;6186;52.022;4.692;2024-01-30T09:12:40;9.00;8.00;4.00
12246;PMS7003;6186;52.022;4.692;2024-01-30T09:15:05;10.00;9.00;5.00
12246;PMS7003;6186;52.022;4.692;2024-01-30T09:17:30;8.50;7.75;3.75
12246;PMS7003;6186;52.022;4.692;2024-01-30T09:19:56;9.75;8.75;4.00
12246;PMS7003;6186;52.022;4.692;2024-01-30T09:22:21;8.50;8.00;4.00
12246;PMS7003;6186;52.022;4.692;2024-01-30T09:24:46;10.50;8.50;5.25
12246;PMS7003;6186;52.022;4.692;2024-01-30T09:27:11;9.25;8.00;4.00
12246;PMS7003;6186;52.022;4.692;2024-01-30T09:29:37;8.75;8.75;3.75
12246;PMS7003;6186;52.022;4.692;2024-01-30T09:32:02;9.25;8.00;4.00
12246;PMS7003;6186;52.022;4.692;2024-01-30T09:34:29;10.00;9.00;3.00
12246;PMS7003;6186;52.022;4.692;2024-01-30T09:36:54;10.00;8.25;4.25
12246;PMS7003;6186;52.022;4.692;2024-01-30T09:39:19;8.25;7.75;4.25
12246;PMS7003;6186;52.022;4.692;2024-01-30T09:41:48;9.00;8.75;4.75
12246;PMS7003;6186;52.022;4.692;2024-01-30T09:44:16;10.00;9.00;4.00
12246;PMS7003;6186;52.022;4.692;2024-01-30T09:46:41;11.00;9.00;4.50
12246;PMS7003;6186;52.022;4.692;2024-01-30T09:49:07;10.75;10.75;5.00
12246;PMS7003;6186;52.022;4.692;2024-01-30T09:51:33;12.60;9.60;5.20
12246;PMS7003;6186;52.022;4.692;2024-01-30T09:54:00;9.60;9.00;4.00
12246;PMS7003;6186;52.022;4.692;2024-01-30T09:56:27;10.80;9.60;4.00
12246;PMS7003;6186;52.022;4.692;2024-01-30T09:58:52;9.25;8.00;4.00
12246;PMS7003;6186;52.022;4.692;2024-01-30T10:01:17;10.75;9.00;5.00
12246;PMS7003;6186;52.022;4.692;2024-01-30T10:03:43;10.00;10.00;4.60
12246;PMS7003;6186;52.022;4.692;2024-01-30T10:06:08;9.25;9.25;4.25
12246;PMS7003;6186;52.022;4.692;2024-01-30T10:08:35;9.00;8.60;5.00
12246;PMS7003;6186;52.022;4.692;2024-01-30T10:11:00;8.75;8.25;4.00
12246;PMS7003;6186;52.022;4.692;2024-01-30T10:13:25;11.00;9.25;5.00
12246;PMS7003;6186;52.022;4.692;2024-01-30T10:15:50;10.75;10.25;7.00
12246;PMS7003;6186;52.022;4.692;2024-01-30T10:18:17;8.80;8.60;4.00
12246;PMS7003;6186;52.022;4.692;2024-01-30T10:20:42;7.75;7.00;3.00
12246;PMS7003;6186;52.022;4.692;2024-01-30T10:23:08;5.25;5.25;2.25
12246;PMS7003;6186;52.022;4.692;2024-01-30T10:25:33;5.25;4.00;2.00
12246;PMS7003;6186;52.022;4.692;2024-01-30T10:27:59;4.00;4.00;2.00
12246;PMS7003;6186;52.022;4.692;2024-01-30T10:30:24;5.25;5.25;2.50
12246;PMS7003;6186;52.022;4.692;2024-01-30T10:32:50;6.75;4.75;2.00
12246;PMS7003;6186;52.022;4.692;2024-01-30T10:35:15;3.50;3.00;1.25
12246;PMS7003;6186;52.022;4.692;2024-01-30T10:37:43;4.25;3.00;1.75
12246;PMS7003;6186;52.022;4.692;2024-01-30T10:40:08;5.20;4.00;1.00
12246;PMS7003;6186;52.022;4.692;2024-01-30T10:42:38;3.60;3.60;1.00
12246;PMS7003;6186;52.022;4.692;2024-01-30T10:45:13;3.20;3.20;1.00
12246;PMS7003;6186;52.022;4.692;2024-01-30T10:47:40;2.00;2.00;1.00
12246;PMS7003;6186;52.022;4.692;2024-01-30T10:50:07;2.60;2.60;1.40
12246;PMS7003;6186;52.022;4.692;2024-01-30T10:52:33;4.00;4.00;2.00
12246;PMS7003;6186;52.022;4.692;2024-01-30T10:54:59;5.40;4.20;1.00
12246;PMS7003;6186;52.022;4.692;2024-01-30T10:57:25;6.25;5.00;2.00
12246;PMS7003;6186;52.022;4.692;2024-01-30T10:59:52;4.40;3.80;1.80
12246;PMS7003;6186;52.022;4.692;2024-01-30T11:02:20;5.60;3.60;1.00
12246;PMS7003;6186;52.022;4.692;2024-01-30T11:04:46;3.00;3.00;1.00
12246;PMS7003;6186;52.022;4.692;2024-01-30T11:07:18;2.00;2.00;0.00
12246;PMS7003;6186;52.022;4.692;2024-01-30T11:12:23;1.60;1.60;0.00
12246;PMS7003;6186;52.022;4.692;2024-01-30T11:14:50;2.00;1.80;0.00
12246;PMS7003;6186;52.022;4.692;2024-01-30T11:17:27;3.00;2.00;0.40
12246;PMS7003;6186;52.022;4.692;2024-01-30T11:19:53;2.20;2.00;0.00
12246;PMS7003;6186;52.022;4.692;2024-01-30T11:22:19;2.00;2.00;0.00
12246;PMS7003;6186;52.022;4.692;2024-01-30T11:24:45;1.40;1.40;0.00
12246;PMS7003;6186;52.022;4.692;2024-01-30T11:27:12;1.00;1.00;0.00
12246;PMS7003;6186;52.022;4.692;2024-01-30T11:29:38;1.00;1.00;0.00
12246;PMS7003;6186;52.022;4.692;2024-01-30T11:32:05;1.00;1.00;0.00
12246;PMS7003;6186;52.022;4.692;2024-01-30T11:34:30;1.00;1.00;0.00
12246;PMS7003;6186;52.022;4.692;2024-01-30T11:36:59;2.00;1.20;0.00
12246;PMS7003;6186;52.022;4.692;2024-01-30T11:39:31;1.60;1.00;0.00
12246;PMS7003;6186;52.022;4.692;2024-01-30T11:41:56;1.00;1.00;0.00
12246;PMS7003;6186;52.022;4.692;2024-01-30T11:44:23;1.00;1.00;0.00
12246;PMS7003;6186;52.022;4.692;2024-01-30T11:46:49;1.00;1.00;0.00
12246;PMS7003;6186;52.022;4.692;2024-01-30T11:49:15;1.00;1.00;0.00
12246;PMS7003;6186;52.022;4.692;2024-01-30T11:51:41;1.40;1.00;0.00
12246;PMS7003;6186;52.022;4.692;2024-01-30T11:54:07;1.00;1.00;0.00
12246;PMS7003;6186;52.022;4.692;2024-01-30T11:56:32;1.80;1.60;0.00
12246;PMS7003;6186;52.022;4.692;2024-01-30T11:58:57;2.00;2.00;0.00
12246;PMS7003;6186;52.022;4.692;2024-01-30T12:01:23;1.75;1.00;0.00
12246;PMS7003;6186;52.022;4.692;2024-01-30T12:03:51;2.00;2.00;1.00
12246;PMS7003;6186;52.022;4.692;2024-01-30T12:06:16;2.00;1.60;0.00
12246;PMS7003;6186;52.022;4.692;2024-01-30T12:08:42;1.75;1.25;0.00
12246;PMS7003;6186;52.022;4.692;2024-01-30T12:11:07;2.00;2.00;0.00
12246;PMS7003;6186;52.022;4.692;2024-01-30T12:13:32;1.00;1.00;0.00
12246;PMS7003;6186;52.022;4.692;2024-01-30T12:15:58;2.00;1.00;0.00
12246;PMS7003;6186;52.022;4.692;2024-01-30T12:18:24;1.25;1.25;0.00
12246;PMS7003;6186;52.022;4.692;2024-01-30T12:20:58;1.75;1.00;0.00
12246;PMS7003;6186;52.022;4.692;2024-01-30T12:23:24;1.00;1.00;0.00
12246;PMS7003;6186;52.022;4.692;2024-01-30T12:25:49;1.50;1.50;0.00
12246;PMS7003;6186;52.022;4.692;2024-01-30T12:28:15;1.25;1.25;0.00
12246;PMS7003;6186;52.022;4.692;2024-01-30T12:30:40;1.00;1.00;0.00
12246;PMS7003;6186;52.022;4.692;2024-01-30T12:33:05;1.75;1.00;0.00
12246;PMS7003;6186;52.022;4.692;2024-01-30T12:35:30;2.00;2.00;0.00
12246;PMS7003;6186;52.022;4.692;2024-01-30T12:37:56;2.00;2.00;0.00
12246;PMS7003;6186;52.022;4.692;2024-01-30T12:40:21;1.00;1.00;0.00
12246;PMS7003;6186;52.022;4.692;2024-01-30T12:42:46;1.50;1.00;0.00
12246;PMS7003;6186;52.022;4.692;2024-01-30T12:45:13;1.00;1.00;0.00
12246;PMS7003;6186;52.022;4.692;2024-01-30T12:47:38;2.00;1.60;0.00
12246;PMS7003;6186;52.022;4.692;2024-01-30T12:50:04;1.00;1.00;0.00
12246;PMS7003;6186;52.022;4.692;2024-01-30T12:52:29;2.00;2.00;0.00
12246;PMS7003;6186;52.022;4.692;2024-01-30T12:54:54;1.75;1.75;0.00
12246;PMS7003;6186;52.022;4.692;2024-01-30T12:57:20;2.00;2.00;0.00
12246;PMS7003;6186;52.022;4.692;2024-01-30T12:59:46;2.00;2.00;0.25
12246;PMS7003;6186;52.022;4.692;2024-01-30T13:02:12;2.00;2.00;0.00
12246;PMS7003;6186;52.022;4.692;2024-01-30T13:04:37;2.00;2.00;0.00
12246;PMS7003;6186;52.022;4.692;2024-01-30T13:07:03;1.00;1.00;0.00
12246;PMS7003;6186;52.022;4.692;2024-01-30T13:09:29;2.00;2.00;0.00
12246;PMS7003;6186;52.022;4.692;2024-01-30T13:11:54;3.00;2.80;0.20
12246;PMS7003;6186;52.022;4.692;2024-01-30T13:14:20;3.00;2.00;0.00
12246;PMS7003;6186;52.022;4.692;2024-01-30T13:16:45;3.00;2.25;0.00
12246;PMS7003;6186;52.022;4.692;2024-01-30T13:19:10;3.00;2.00;0.50
12246;PMS7003;6186;52.022;4.692;2024-01-30T13:21:36;3.00;2.75;0.00
12246;PMS7003;6186;52.022;4.692;2024-01-30T13:24:01;1.75;1.25;0.00
12246;PMS7003;6186;52.022;4.692;2024-01-30T13:26:26;1.00;1.00;0.00
12246;PMS7003;6186;52.022;4.692;2024-01-30T13:28:51;1.50;1.00;0.00
12246;PMS7003;6186;52.022;4.692;2024-01-30T13:31:17;2.00;2.00;0.00
12246;PMS7003;6186;52.022;4.692;2024-01-30T13:33:42;2.00;2.00;0.00
12246;PMS7003;6186;52.022;4.692;2024-01-30T13:36:11;1.00;1.00;0.00
12246;PMS7003;6186;52.022;4.692;2024-01-30T13:38:36;2.00;2.00;0.00
12246;PMS7003;6186;52.022;4.692;2024-01-30T13:41:02;2.75;1.75;0.00
12246;PMS7003;6186;52.022;4.692;2024-01-30T13:43:27;3.00;2.00;0.00
12246;PMS7003;6186;52.022;4.692;2024-01-30T13:45:52;1.50;1.50;0.00
12246;PMS7003;6186;52.022;4.692;2024-01-30T13:48:18;2.00;2.00;0.00
12246;PMS7003;6186;52.022;4.692;2024-01-30T13:50:43;1.00;1.00;0.00
12246;PMS7003;6186;52.022;4.692;2024-01-30T13:53:08;1.75;1.75;0.00
12246;PMS7003;6186;52.022;4.692;2024-01-30T13:55:34;2.00;2.00;1.00
12246;PMS7003;6186;52.022;4.692;2024-01-30T13:57:59;3.00;2.00;0.00
12246;PMS7003;6186;52.022;4.692;2024-01-30T14:00:24;2.00;2.00;0.50
12246;PMS7003;6186;52.022;4.692;2024-01-30T14:02:49;1.75;1.00;0.00
12246;PMS7003;6186;52.022;4.692;2024-01-30T14:05:15;2.00;2.00;0.00
12246;PMS7003;6186;52.022;4.692;2024-01-30T14:07:40;2.00;2.00;0.00
12246;PMS7003;6186;52.022;4.692;2024-01-30T14:10:06;1.50;1.50;0.00
12246;PMS7003;6186;52.022;4.692;2024-01-30T14:12:31;2.00;1.40;0.00
12246;PMS7003;6186;52.022;4.692;2024-01-30T14:14:56;3.00;2.75;1.00